Time;durP1;ratioP1;P1;durP2;ratioP2;P2;SDS_P1;SDS_P2;PMS_P1;PMS_P2;Temp;Humidity;BMP_temperature;BMP_pressure;BME280_temperature;BME280_humidity;BME280_pressure;Samples;Min_cycle;Max_cycle;Signal;HPM_P1;HPM_P2
2022/03/05 00:01:14;;;;;;;0.60;0.60;;;;;;;-1.78;59.91;98851.81;4866035;29;20640;-91
2022/03/05 00:03:45;;;;;;;0.60;0.60;;;;;;;-1.77;59.95;98849.03;4873816;29;20077;-91
2022/03/05 00:06:13;;;;;;;0.40;0.40;;;;;;;-1.81;60.64;98845.03;4871619;29;20059;-91
2022/03/05 00:08:47;;;;;;;0.52;0.52;;;;;;;-1.80;60.49;98849.38;4892359;29;20053;-90
2022/03/05 00:11:18;;;;;;;0.40;0.40;;;;;;;-1.79;60.53;98850.19;4898909;29;20064;-92
2022/03/05 00:13:48;;;;;;;0.50;0.50;;;;;;;-1.79;60.53;98839.59;4899865;29;20033;-91
2022/03/05 00:16:15;;;;;;;0.60;0.60;;;;;;;-1.78;60.45;98846.53;4880195;29;20109;-90
2022/03/05 00:18:45;;;;;;;0.60;0.60;;;;;;;-1.81;60.92;98834.47;4891399;29;20140;-91
2022/03/05 00:21:13;;;;;;;0.40;0.40;;;;;;;-1.77;61.44;98842.91;4892496;29;20053;-91
2022/03/05 00:23:40;;;;;;;0.40;0.40;;;;;;;-1.84;61.88;98832.16;4889740;29;20468;-91
2022/03/05 00:26:13;;;;;;;0.40;0.40;;;;;;;-1.80;62.43;98838.78;4889688;29;20116;-90
2022/03/05 00:28:41;;;;;;;0.65;0.65;;;;;;;-1.79;63.00;98839.59;4860928;29;20151;-91
2022/03/05 00:31:08;;;;;;;0.50;0.50;;;;;;;-1.79;63.39;98843.06;4891569;29;20057;-91
2022/03/05 00:33:35;;;;;;;0.60;0.60;;;;;;;-1.80;64.02;98827.34;4893898;29;20045;-90
2022/03/05 00:36:04;;;;;;;0.50;0.50;;;;;;;-1.78;64.38;98844.69;4893653;29;20104;-92
2022/03/05 00:38:41;;;;;;;0.60;0.60;;;;;;;-1.82;64.83;98835.47;4887769;29;20049;-92
2022/03/05 00:41:10;;;;;;;0.52;0.52;;;;;;;-1.84;65.32;98840.09;4873915;29;20057;-90
2022/03/05 00:43:37;;;;;;;0.60;0.60;;;;;;;-1.84;65.52;98848.03;4885631;29;20049;-91
2022/03/05 00:46:07;;;;;;;0.60;0.60;;;;;;;-1.87;65.55;98827.22;4887103;29;20053;-92
2022/03/05 00:48:36;;;;;;;0.50;0.50;;;;;;;-1.79;65.74;98839.59;4889581;29;20072;-91
2022/03/05 00:51:18;;;;;;;0.50;0.50;;;;;;;-1.79;65.79;98848.34;4902286;29;20036;-91
2022/03/05 00:53:45;;;;;;;0.60;0.60;;;;;;;-1.80;66.06;98852.00;4903008;29;20105;-85
2022/03/05 00:56:13;;;;;;;0.47;0.47;;;;;;;-1.78;66.33;98847.34;4903467;29;20040;-88
2022/03/05 00:58:40;;;;;;;0.55;0.55;;;;;;;-1.83;66.44;98843.56;4903930;29;20097;-86
2022/03/05 01:01:08;;;;;;;0.50;0.50;;;;;;;-1.81;66.95;98857.47;4899154;29;20049;-92
2022/03/05 01:03:36;;;;;;;0.50;0.50;;;;;;;-1.81;67.11;98852.16;4885445;29;20045;-91
2022/03/05 01:06:09;;;;;;;0.50;0.50;;;;;;;-1.82;67.45;98848.69;4883535;29;20088;-91
2022/03/05 01:08:37;;;;;;;0.55;0.55;;;;;;;-1.82;67.89;98861.09;4883796;29;20142;-90
2022/03/05 01:11:04;;;;;;;0.40;0.40;;;;;;;-1.88;68.01;98844.06;4891288;29;20061;-89
2022/03/05 01:13:32;;;;;;;0.50;0.50;;;;;;;-1.83;68.25;98849.69;4884449;29;20084;-92
2022/03/05 01:15:59;;;;;;;0.60;0.60;;;;;;;-1.86;68.27;98844.72;4884211;29;20501;-92
2022/03/05 01:18:26;;;;;;;0.60;0.60;;;;;;;-1.88;68.43;98844.06;4885801;29;20060;-91
2022/03/05 01:20:54;;;;;;;0.50;0.50;;;;;;;-1.85;68.30;98837.63;4908311;29;20056;-91
2022/03/05 01:23:22;;;;;;;0.57;0.57;;;;;;;-1.84;68.30;98842.75;4890488;29;20056;-92
2022/03/05 01:26:41;;;;;;;0.60;0.60;;;;;;;-1.78;68.55;98849.19;4885842;29;20078;-92
2022/03/05 01:29:09;;;;;;;0.60;0.60;;;;;;;-1.84;68.40;98842.75;4886612;29;20052;-90
2022/03/05 01:31:37;;;;;;;0.60;0.60;;;;;;;-1.86;68.36;98834.16;4867850;29;20053;-90
2022/03/05 01:34:07;;;;;;;0.45;0.45;;;;;;;-1.85;68.35;98843.75;4887956;29;20033;-88
2022/03/05 01:36:34;;;;;;;0.60;0.60;;;;;;;-1.88;68.59;98835.31;4903252;29;20045;-87
2022/03/05 01:39:02;;;;;;;0.50;0.50;;;;;;;-1.89;68.50;98831.84;4918319;29;20109;-90
2022/03/05 01:41:29;;;;;;;0.50;0.50;;;;;;;-1.91;67.97;98840.94;4895122;29;20049;-92
2022/03/05 01:43:57;;;;;;;0.57;0.57;;;;;;;-1.92;67.98;98832.19;4870189;29;20420;-91
2022/03/05 01:46:39;;;;;;;0.60;0.60;;;;;;;-1.86;67.60;98828.84;4898507;29;20071;-90
2022/03/05 01:49:09;;;;;;;0.43;0.43;;;;;;;-1.88;66.74;98840.59;4903283;29;20068;-86
2022/03/05 01:51:37;;;;;;;0.50;0.50;;;;;;;-1.85;66.77;98840.25;4911972;29;20037;-88
2022/03/05 01:54:06;;;;;;;0.60;0.60;;;;;;;-1.85;66.77;98842.91;4902053;29;20062;-88
2022/03/05 01:56:34;;;;;;;0.40;0.40;;;;;;;-1.86;67.23;98847.38;4901406;29;20041;-90
2022/03/05 01:59:03;;;;;;;0.40;0.40;;;;;;;-1.91;67.33;98841.75;4891933;29;20074;-87
2022/03/05 02:01:30;;;;;;;0.60;0.60;;;;;;;-1.87;67.37;98852.84;4877721;29;20049;-89
2022/03/05 02:03:59;;;;;;;0.50;0.50;;;;;;;-1.92;66.92;98848.06;4894539;29;20041;-88
2022/03/05 02:06:27;;;;;;;0.60;0.60;;;;;;;-1.90;66.98;98853.16;4891834;29;20059;-88
2022/03/05 02:08:57;;;;;;;0.50;0.50;;;;;;;-1.92;66.89;98848.06;4875347;29;20050;-87
2022/03/05 02:11:25;;;;;;;0.70;0.70;;;;;;;-1.91;66.34;98851.53;4877719;29;20053;-90
2022/03/05 02:13:59;;;;;;;0.70;0.70;;;;;;;-1.87;66.13;98858.97;4878434;29;20049;-90
2022/03/05 02:16:26;;;;;;;0.80;0.80;;;;;;;-1.90;65.80;98856.66;4871363;29;20109;-86
2022/03/05 02:18:57;;;;;;;0.70;0.70;;;;;;;-1.91;64.82;98846.22;4860714;29;20057;-90
2022/03/05 02:21:26;;;;;;;0.50;0.50;;;;;;;-1.89;64.14;98860.13;4863316;29;20505;-85
2022/03/05 02:23:55;;;;;;;0.70;0.70;;;;;;;-1.96;64.43;98860.78;4851184;29;20053;-91
2022/03/05 02:26:22;;;;;;;0.50;0.50;;;;;;;-1.91;64.32;98862.09;4862172;29;20407;-89
2022/03/05 02:28:51;;;;;;;0.60;0.60;;;;;;;-1.90;63.73;98864.59;4875283;29;20045;-91
2022/03/05 02:31:23;;;;;;;0.50;0.50;;;;;;;-1.92;63.79;98857.78;4855381;29;20153;-86
2022/03/05 02:33:55;;;;;;;0.77;0.77;;;;;;;-1.97;63.47;98853.84;4876946;29;20069;-89
2022/03/05 02:36:25;;;;;;;0.30;0.30;;;;;;;-1.89;63.50;98876.00;4876730;29;20052;-88
2022/03/05 02:38:53;;;;;;;0.40;0.40;;;;;;;-1.92;63.59;98865.72;4870500;29;20081;-88
2022/03/05 02:41:20;;;;;;;0.60;0.60;;;;;;;-1.87;64.01;98866.06;4884122;29;20057;-88
2022/03/05 02:43:48;;;;;;;0.47;0.47;;;;;;;-1.81;63.90;98862.75;4879336;29;20144;-87
2022/03/05 02:46:25;;;;;;;0.60;0.60;;;;;;;-1.84;64.26;98866.56;4894313;29;20101;-89
2022/03/05 02:48:53;;;;;;;0.60;0.60;;;;;;;-1.84;64.70;98852.50;4877174;29;20504;-90
2022/03/05 02:51:22;;;;;;;0.60;0.60;;;;;;;-1.84;64.94;98858.63;4878560;29;20049;-87
2022/03/05 02:53:49;;;;;;;0.45;0.45;;;;;;;-1.85;65.22;98858.78;4880271;29;20101;-87
2022/03/05 02:56:16;;;;;;;0.50;0.50;;;;;;;-1.84;65.77;98861.25;4867656;29;20419;-89
2022/03/05 02:58:43;;;;;;;0.70;0.70;;;;;;;-1.85;65.80;98864.91;4892987;29;20049;-89
2022/03/05 03:01:10;;;;;;;0.70;0.70;;;;;;;-1.84;66.11;98868.38;4878378;29;20056;-90
2022/03/05 03:03:38;;;;;;;0.52;0.52;;;;;;;-1.85;66.55;98862.28;4880934;29;20049;-88
2022/03/05 03:06:08;;;;;;;0.52;0.52;;;;;;;-1.81;66.93;98873.34;4893368;29;20053;-90
2022/03/05 03:08:40;;;;;;;0.50;0.50;;;;;;;-1.84;67.13;98863.91;4878593;29;20049;-90
2022/03/05 03:11:08;;;;;;;0.60;0.60;;;;;;;-1.81;67.34;98862.75;4880543;29;20136;-87
2022/03/05 03:13:37;;;;;;;0.60;0.60;;;;;;;-1.81;67.60;98873.34;4881319;29;20203;-88
2022/03/05 03:16:09;;;;;;;0.40;0.40;;;;;;;-1.83;67.51;98860.25;4882944;29;20053;-89
2022/03/05 03:18:36;;;;;;;0.50;0.50;;;;;;;-1.83;67.24;98868.19;4882070;29;20513;-90
2022/03/05 03:21:05;;;;;;;0.50;0.50;;;;;;;-1.85;67.37;98874.66;4881226;29;20117;-90
2022/03/05 03:23:32;;;;;;;0.40;0.40;;;;;;;-1.88;67.05;98869.69;4883281;29;20059;-90
2022/03/05 03:26:01;;;;;;;0.50;0.50;;;;;;;-1.84;66.71;98876.31;4896699;29;20049;-88
2022/03/05 03:28:28;;;;;;;0.60;0.60;;;;;;;-1.87;66.46;98882.78;4882251;29;20053;-88
2022/03/05 03:30:56;;;;;;;0.60;0.60;;;;;;;-1.87;65.95;98877.47;4882210;29;20053;-90
2022/03/05 03:33:23;;;;;;;0.60;0.60;;;;;;;-1.94;65.50;98862.44;4880702;29;20053;-88
2022/03/05 03:35:50;;;;;;;0.80;0.80;;;;;;;-1.93;64.73;98864.91;4880474;29;20112;-88
2022/03/05 03:38:17;;;;;;;0.40;0.40;;;;;;;-2.01;63.99;98878.16;4872080;29;20463;-87
2022/03/05 03:40:45;;;;;;;0.68;0.68;;;;;;;-1.99;63.87;98892.03;4865773;29;20201;-88
2022/03/05 03:43:18;;;;;;;0.50;0.50;;;;;;;-2.01;63.72;98891.38;4849974;29;20084;-89
2022/03/05 03:45:50;;;;;;;0.40;0.40;;;;;;;-2.03;63.67;98885.41;4866298;29;20069;-88
2022/03/05 03:48:17;;;;;;;0.63;0.63;;;;;;;-2.02;63.31;98892.38;4867022;29;20064;-87
2022/03/05 03:50:45;;;;;;;0.60;0.60;;;;;;;-2.03;63.00;98888.88;4866291;29;20053;-87
2022/03/05 03:53:14;;;;;;;0.50;0.50;;;;;;;-2.01;63.07;98888.72;4863346;29;20528;-85
2022/03/05 03:55:41;;;;;;;0.50;0.50;;;;;;;-2.02;63.16;98887.91;4859207;29;20061;-90
2022/03/05 03:58:10;;;;;;;0.55;0.55;;;;;;;-2.01;63.61;98894.03;4860341;29;20057;-92
2022/03/05 04:00:42;;;;;;;0.50;0.50;;;;;;;-2.01;63.82;98896.66;4851170;29;20081;-91
2022/03/05 04:03:12;;;;;;;0.40;0.40;;;;;;;-2.04;64.64;98903.13;4860287;29;20735;-89
2022/03/05 04:05:42;;;;;;;0.70;0.70;;;;;;;-2.07;65.83;98881.47;4863369;29;20089;-89
2022/03/05 04:11:18;;;;;;;0.30;0.30;;;;;;;-2.15;67.30;98906.09;4834486;29;20065;-90
2022/03/05 04:13:47;;;;;;;0.50;0.50;;;;;;;-2.13;67.40;98900.63;4827816;29;20058;-91
2022/03/05 04:16:19;;;;;;;0.50;0.50;;;;;;;-2.20;67.50;98916.34;4807846;29;20529;-87
2022/03/05 04:18:46;;;;;;;0.50;0.50;;;;;;;-2.20;67.35;98911.06;4829083;29;20058;-90
2022/03/05 04:21:13;;;;;;;0.40;0.40;;;;;;;-2.26;67.26;98917.81;4830917;29;20118;-90
2022/03/05 04:23:43;;;;;;;0.50;0.50;;;;;;;-2.30;67.21;98916.50;4816879;29;20511;-90
2022/03/05 04:26:36;;;;;;;0.60;0.60;;;;;;;-2.29;66.89;98912.84;4829731;29;20077;-91
2022/03/05 04:29:03;;;;;;;0.50;0.50;;;;;;;-2.34;66.18;98925.75;4831272;29;20150;-90
2022/03/05 04:31:31;;;;;;;0.40;0.40;;;;;;;-2.35;66.14;98926.75;4829681;29;20050;-91
2022/03/05 04:33:59;;;;;;;0.60;0.60;;;;;;;-2.37;66.13;98936.66;4843186;29;20118;-88
2022/03/05 04:36:29;;;;;;;0.52;0.52;;;;;;;-2.35;65.83;98939.97;4846515;29;20045;-88
2022/03/05 04:38:57;;;;;;;0.50;0.50;;;;;;;-2.40;65.11;98937.81;4831633;29;20067;-89
2022/03/05 04:41:25;;;;;;;0.57;0.57;;;;;;;-2.40;65.32;98944.91;4831199;29;20034;-89
2022/03/05 04:43:56;;;;;;;0.43;0.43;;;;;;;-2.38;65.55;98945.59;4801283;29;20130;-90
2022/03/05 04:46:25;;;;;;;0.57;0.57;;;;;;;-2.41;65.17;98943.25;4831673;29;20292;-89
2022/03/05 04:48:56;;;;;;;0.55;0.55;;;;;;;-2.45;64.43;98949.84;4864992;29;20093;-89
2022/03/05 04:51:25;;;;;;;0.57;0.57;;;;;;;-2.47;64.40;98972.97;4879780;29;20052;-89
2022/03/05 04:53:53;;;;;;;0.40;0.40;;;;;;;-2.51;64.31;98966.34;4880698;29;20099;-90
2022/03/05 04:56:24;;;;;;;0.70;0.70;;;;;;;-2.56;64.72;98956.25;4865049;29;20088;-89
2022/03/05 04:58:52;;;;;;;0.60;0.60;;;;;;;-2.51;64.58;98961.88;4880844;29;20060;-90
2022/03/05 05:01:46;;;;;;;0.50;0.50;;;;;;;-2.47;64.10;98965.03;4881496;29;20061;-90
2022/03/05 05:04:14;;;;;;;0.47;0.47;;;;;;;-2.56;63.93;98964.19;4869467;29;20045;-89
2022/03/05 05:06:44;;;;;;;0.52;0.52;;;;;;;-2.55;64.25;98965.84;4851875;29;20057;-90
2022/03/05 05:09:25;;;;;;;0.50;0.50;;;;;;;-2.50;64.84;98981.22;4864543;29;20068;-91
2022/03/05 05:11:55;;;;;;;0.60;0.60;;;;;;;-2.50;65.34;98965.38;4877807;29;20076;-87
2022/03/05 05:14:32;;;;;;;0.60;0.60;;;;;;;-2.56;65.33;98972.09;4859868;29;20061;-89
2022/03/05 05:17:00;;;;;;;0.45;0.45;;;;;;;-2.64;65.30;98957.06;4877144;29;20049;-89
2022/03/05 05:19:29;;;;;;;0.40;0.40;;;;;;;-2.64;65.54;98957.06;4874949;29;20085;-90
2022/03/05 05:22:04;;;;;;;0.47;0.47;;;;;;;-2.52;65.44;98965.53;4860940;29;20065;-89
2022/03/05 05:24:34;;;;;;;0.60;0.60;;;;;;;-2.58;65.41;98968.81;4874907;29;20277;-91
2022/03/05 05:27:03;;;;;;;0.50;0.50;;;;;;;-2.58;65.41;98971.47;4882297;29;20113;-89
2022/03/05 05:29:31;;;;;;;0.60;0.60;;;;;;;-2.54;65.25;98977.25;4894195;29;20536;-88
2022/03/05 05:32:11;;;;;;;0.57;0.57;;;;;;;-2.51;65.81;98983.03;4899714;29;20082;-90
2022/03/05 05:34:41;;;;;;;0.50;0.50;;;;;;;-2.54;65.69;98972.78;4875611;29;20053;-90
2022/03/05 05:37:15;;;;;;;0.50;0.50;;;;;;;-2.50;65.42;98983.88;4852094;29;20049;-90
2022/03/05 05:39:43;;;;;;;0.50;0.50;;;;;;;-2.52;65.17;98978.75;4886354;29;20121;-87
2022/03/05 05:42:11;;;;;;;0.70;0.70;;;;;;;-2.51;64.73;98983.03;4865033;29;20076;-92
2022/03/05 05:44:41;;;;;;;0.60;0.60;;;;;;;-2.57;64.16;98981.03;4869881;29;20053;-91
2022/03/05 05:47:10;;;;;;;0.50;0.50;;;;;;;-2.58;63.92;98989.97;4880205;29;20635;-87
2022/03/05 05:49:40;;;;;;;0.52;0.52;;;;;;;-2.56;64.20;98992.44;4873081;29;20053;-89
2022/03/05 05:52:10;;;;;;;0.60;0.60;;;;;;;-2.49;64.07;99001.38;4886846;29;20109;-90
2022/03/05 05:54:46;;;;;;;0.60;0.60;;;;;;;-2.51;63.65;98987.50;4852432;29;20053;-91
2022/03/05 05:57:16;;;;;;;0.50;0.50;;;;;;;-2.54;63.88;99003.66;4834369;29;20581;-87
2022/03/05 05:59:43;;;;;;;0.40;0.40;;;;;;;-2.55;63.93;98999.38;4877923;29;20069;-93
2022/03/05 06:02:23;;;;;;;0.43;0.43;;;;;;;-2.49;64.46;99001.38;4891662;29;20060;-89
2022/03/05 06:04:58;;;;;;;0.60;0.60;;;;;;;-2.47;64.94;99009.97;4879229;29;20045;-92
2022/03/05 06:07:29;;;;;;;0.50;0.50;;;;;;;-2.40;64.56;99013.63;4878518;29;20572;-93
2022/03/05 06:10:00;;;;;;;0.70;0.70;;;;;;;-2.34;64.58;99012.97;4848624;29;20057;-93
2022/03/05 06:12:45;;;;;;;0.73;0.73;;;;;;;-2.34;64.27;99010.31;4859990;29;20049;-90
2022/03/05 06:15:18;;;;;;;0.52;0.52;;;;;;;-2.33;64.65;99012.00;4885863;29;20101;-89
2022/03/05 06:17:46;;;;;;;0.60;0.60;;;;;;;-2.37;64.76;99000.09;4851287;29;20053;-92
2022/03/05 06:20:14;;;;;;;0.70;0.70;;;;;;;-2.34;64.61;99004.22;4851611;29;20052;-91
2022/03/05 06:22:44;;;;;;;0.52;0.52;;;;;;;-2.31;64.44;98996.78;4888143;29;20049;-89
2022/03/05 06:25:19;;;;;;;0.60;0.60;;;;;;;-2.22;63.73;98993.19;4885249;29;20053;-90
2022/03/05 06:27:49;;;;;;;0.63;0.63;;;;;;;-2.21;63.52;99013.31;4871027;29;20141;-89
2022/03/05 06:30:17;;;;;;;0.60;0.60;;;;;;;-2.27;63.45;99005.22;4865651;29;20053;-89
2022/03/05 06:32:44;;;;;;;0.50;0.50;;;;;;;-2.34;63.63;99010.31;4876594;29;20564;-89
2022/03/05 06:35:14;;;;;;;0.60;0.60;;;;;;;-2.30;64.15;99005.56;4871391;29;20473;-85
2022/03/05 06:37:43;;;;;;;0.70;0.70;;;;;;;-2.28;64.32;99017.63;4852910;29;20051;-89
2022/03/05 06:40:11;;;;;;;0.57;0.57;;;;;;;-2.22;64.43;99013.50;4869825;29;20125;-89
2022/03/05 06:42:42;;;;;;;0.70;0.70;;;;;;;-2.24;64.58;99018.94;4858663;29;20087;-88
2022/03/05 06:45:09;;;;;;;0.60;0.60;;;;;;;-2.29;64.67;99028.34;4869044;29;20059;-92
2022/03/05 06:47:40;;;;;;;0.70;0.70;;;;;;;-2.22;64.60;99019.63;4882103;29;20067;-90
2022/03/05 06:50:12;;;;;;;0.70;0.70;;;;;;;-2.18;64.27;99028.03;4873787;29;20075;-87
2022/03/05 06:52:40;;;;;;;0.70;0.70;;;;;;;-2.20;64.14;99022.94;4874664;29;20057;-85
2022/03/05 06:55:13;;;;;;;0.45;0.45;;;;;;;-2.09;64.18;99031.53;4875605;29;20053;-89
2022/03/05 06:57:42;;;;;;;0.68;0.68;;;;;;;-1.98;63.80;99029.38;4859616;29;20055;-84
2022/03/05 07:00:12;;;;;;;0.50;0.50;;;;;;;-1.91;63.54;99029.56;4879634;29;20056;-88
2022/03/05 07:02:41;;;;;;;0.50;0.50;;;;;;;-1.80;63.02;99023.13;4863416;29;20049;-90
2022/03/05 07:05:09;;;;;;;0.60;0.60;;;;;;;-1.76;62.75;99020.00;4869192;29;20049;-87
2022/03/05 07:07:38;;;;;;;0.60;0.60;;;;;;;-1.76;61.99;99024.47;4889720;29;20052;-83
2022/03/05 07:10:06;;;;;;;0.57;0.57;;;;;;;-1.79;62.17;99030.91;4879392;29;20059;-89
2022/03/05 07:12:33;;;;;;;0.45;0.45;;;;;;;-1.75;61.90;99026.09;4540854;29;10000563;-89
2022/03/05 07:15:07;;;;;;;0.60;0.60;;;;;;;-1.84;61.57;99016.53;4883039;29;20049;-90
2022/03/05 07:17:34;;;;;;;0.50;0.50;;;;;;;-1.84;61.77;99027.94;4862602;29;20155;-89
2022/03/05 07:20:03;;;;;;;0.60;0.60;;;;;;;-1.79;61.10;99030.09;4874889;29;20053;-88
2022/03/05 07:22:31;;;;;;;0.70;0.70;;;;;;;-1.90;61.27;99027.75;4864720;29;20046;-89
2022/03/05 07:24:59;;;;;;;0.77;0.77;;;;;;;-1.83;60.71;99024.28;4861563;29;20045;-89
2022/03/05 07:27:26;;;;;;;0.70;0.70;;;;;;;-1.86;60.57;99016.69;4854891;29;20156;-88
2022/03/05 07:29:54;;;;;;;0.75;0.75;;;;;;;-1.75;61.18;99020.81;4878233;29;20587;-87
2022/03/05 07:32:21;;;;;;;0.80;0.80;;;;;;;-1.49;60.21;99031.25;4868790;29;20049;-88
2022/03/05 07:34:49;;;;;;;0.85;0.85;;;;;;;-1.54;59.82;99022.97;4881302;29;20568;-87
2022/03/05 07:37:16;;;;;;;0.68;0.68;;;;;;;-1.42;59.07;99026.94;4847337;29;20057;-88
2022/03/05 07:39:46;;;;;;;0.73;0.73;;;;;;;-1.42;58.19;99024.31;4863169;29;20052;-89
2022/03/05 07:42:14;;;;;;;0.60;0.60;;;;;;;-1.22;58.32;99019.44;4877686;29;20053;-88
2022/03/05 07:44:47;;;;;;;0.80;0.80;;;;;;;-0.88;57.73;99024.50;4872842;29;20053;-89
2022/03/05 07:47:19;;;;;;;0.65;0.65;;;;;;;-0.59;57.15;99023.06;4883506;29;20120;-90
2022/03/05 07:49:48;;;;;;;0.70;0.70;;;;;;;-0.40;56.65;99021.03;4875397;29;20049;-86
2022/03/05 07:52:17;;;;;;;0.60;0.60;;;;;;;-0.56;56.17;99017.41;4859706;29;20060;-89
2022/03/05 07:54:45;;;;;;;0.75;0.75;;;;;;;-0.51;56.44;99030.16;4879472;29;20093;-87
2022/03/05 07:57:13;;;;;;;0.80;0.80;;;;;;;-0.69;56.18;99027.75;4873983;29;20078;-89
2022/03/05 07:59:43;;;;;;;0.70;0.70;;;;;;;-0.76;56.44;99043.53;4881899;29;20567;-89
2022/03/05 08:02:17;;;;;;;0.70;0.70;;;;;;;-0.77;56.86;99030.44;4883316;29;20105;-88
2022/03/05 08:04:47;;;;;;;0.70;0.70;;;;;;;-0.69;56.43;99033.88;4876347;29;20049;-88
2022/03/05 08:07:29;;;;;;;0.70;0.70;;;;;;;-0.69;56.29;99023.28;4870103;29;20061;-87
2022/03/05 08:09:57;;;;;;;0.75;0.75;;;;;;;-0.54;55.50;99010.13;4843220;29;20066;-87
2022/03/05 08:12:26;;;;;;;0.70;0.70;;;;;;;-0.31;54.83;99027.91;4854845;29;20073;-88
2022/03/05 08:14:53;;;;;;;0.60;0.60;;;;;;;-0.19;54.71;99029.16;4862806;29;20520;-87
2022/03/05 08:17:26;;;;;;;0.70;0.70;;;;;;;-0.16;54.83;99022.69;4881629;29;20065;-89
2022/03/05 08:19:54;;;;;;;0.75;0.75;;;;;;;-0.03;54.78;99034.38;4865210;29;20064;-88
2022/03/05 08:22:31;;;;;;;0.90;0.90;;;;;;;0.18;54.85;99032.94;4847213;29;20121;-88
2022/03/05 08:24:59;;;;;;;0.82;0.82;;;;;;;0.29;54.37;99026.38;4872780;29;20061;-89
2022/03/05 08:27:32;;;;;;;0.60;0.60;;;;;;;0.38;53.48;99033.25;4882550;29;20060;-87
2022/03/05 08:30:01;;;;;;;0.90;0.90;;;;;;;0.29;53.46;99029.03;4860049;29;20113;-90
2022/03/05 08:32:36;;;;;;;0.70;0.70;;;;;;;-0.07;54.07;99022.47;4877441;29;20057;-85
2022/03/05 08:35:05;;;;;;;0.80;0.80;;;;;;;0.16;54.14;99026.97;4877564;29;20053;-89
2022/03/05 08:37:35;;;;;;;0.77;0.77;;;;;;;0.06;53.81;99037.81;4841595;29;20069;-89
2022/03/05 08:40:05;;;;;;;0.68;0.68;;;;;;;0.06;53.72;99037.81;4868926;29;20045;-88
2022/03/05 08:42:33;;;;;;;0.82;0.82;;;;;;;-0.16;53.84;99046.56;4870017;29;20054;-87
2022/03/05 08:45:02;;;;;;;0.85;0.85;;;;;;;-0.26;54.13;99036.16;4845950;29;20069;-87
2022/03/05 08:47:30;;;;;;;0.60;0.60;;;;;;;-0.48;53.85;99043.91;4857071;29;20057;-87
2022/03/05 08:49:57;;;;;;;0.70;0.70;;;;;;;-0.63;54.65;99056.25;4865511;29;20057;-85
2022/03/05 08:52:25;;;;;;;0.70;0.70;;;;;;;-0.93;55.18;99041.91;4863687;29;20045;-87
2022/03/05 08:54:52;;;;;;;0.80;0.80;;;;;;;-0.99;55.96;99054.00;4842055;29;20045;-84
2022/03/05 08:57:19;;;;;;;0.60;0.60;;;;;;;-0.92;56.14;99062.09;4861721;29;20057;-86
2022/03/05 08:59:46;;;;;;;0.70;0.70;;;;;;;-0.92;56.31;99049.69;4859464;29;20073;-86
2022/03/05 09:02:17;;;;;;;0.60;0.60;;;;;;;-0.81;56.37;99061.75;4868124;29;20160;-85
2022/03/05 09:04:52;;;;;;;0.75;0.75;;;;;;;-0.61;55.91;99056.03;4868217;29;20088;-84
2022/03/05 09:07:19;;;;;;;0.70;0.70;;;;;;;-0.40;55.81;99058.97;4842442;29;20873;-84
2022/03/05 09:09:47;;;;;;;0.70;0.70;;;;;;;-0.28;55.31;99056.72;4870436;29;20604;-87
2022/03/05 09:12:15;;;;;;;0.70;0.70;;;;;;;-0.25;55.10;99061.72;4876097;29;20053;-87
2022/03/05 09:14:42;;;;;;;0.70;0.70;;;;;;;-0.20;54.76;99055.88;4859060;29;20053;-85
2022/03/05 09:17:13;;;;;;;0.80;0.80;;;;;;;-0.19;54.78;99050.41;4873115;29;20056;-87
2022/03/05 09:19:42;;;;;;;0.70;0.70;;;;;;;-0.65;55.11;99063.53;4874456;29;20124;-85
2022/03/05 09:22:11;;;;;;;0.80;0.80;;;;;;;-0.72;56.00;99066.03;4870490;29;20086;-87
2022/03/05 09:25:06;;;;;;;0.60;0.60;;;;;;;-0.75;56.25;99068.19;4866099;29;20277;-88
2022/03/05 09:27:33;;;;;;;0.80;0.80;;;;;;;-0.72;56.06;99081.09;4880899;29;20121;-88
2022/03/05 09:30:01;;;;;;;0.75;0.75;;;;;;;-0.57;55.93;99083.88;4868249;29;20053;-87
2022/03/05 09:32:29;;;;;;;0.65;0.65;;;;;;;-0.38;55.68;99072.03;4866581;29;20041;-87
2022/03/05 09:34:59;;;;;;;0.75;0.75;;;;;;;-0.49;54.51;99087.31;4885695;29;20059;-88
2022/03/05 09:37:28;;;;;;;0.90;0.90;;;;;;;-0.73;55.29;99084.75;4887489;29;20076;-88
2022/03/05 09:40:11;;;;;;;1.27;1.23;;;;;;;0.31;54.28;99080.94;4877002;29;20547;-88
2022/03/05 09:42:46;;;;;;;0.70;0.70;;;;;;;0.78;50.76;99079.06;4888871;29;20531;-88
2022/03/05 09:45:15;;;;;;;0.63;0.63;;;;;;;0.01;53.20;99092.41;4893491;29;20041;-88
2022/03/05 09:47:52;;;;;;;0.70;0.70;;;;;;;-0.13;54.11;99081.53;4901452;29;20071;-88
2022/03/05 09:50:32;;;;;;;0.70;0.70;;;;;;;-0.33;54.13;99089.09;4890107;29;20053;-87
2022/03/05 09:52:59;;;;;;;0.65;0.65;;;;;;;-0.47;54.80;99095.94;4864869;29;20041;-87
2022/03/05 09:55:32;;;;;;;0.73;0.73;;;;;;;-0.38;54.76;99098.53;4882322;29;20077;-86
2022/03/05 09:58:00;;;;;;;0.70;0.70;;;;;;;-0.34;54.89;99094.56;4871980;29;20045;-87
2022/03/05 10:00:31;;;;;;;0.80;0.80;;;;;;;-0.12;54.61;99100.94;4881267;29;20061;-86
2022/03/05 10:02:59;;;;;;;0.70;0.70;;;;;;;-0.03;54.19;99107.84;4880962;29;20089;-87
2022/03/05 10:05:27;;;;;;;0.88;0.88;;;;;;;-0.01;54.03;99104.00;4860054;29;20535;-88
2022/03/05 10:08:13;;;;;;;0.88;0.88;;;;;;;-0.09;54.50;99101.41;4872882;29;20167;-87
2022/03/05 10:10:55;;;;;;;0.90;0.90;;;;;;;0.44;53.45;99101.59;4876413;29;20085;-86
2022/03/05 10:13:31;;;;;;;0.90;0.90;;;;;;;0.55;52.50;99095.84;4863352;29;20057;-88
2022/03/05 10:16:05;;;;;;;0.90;0.90;;;;;;;0.85;50.79;99091.47;4859923;29;20077;-90
2022/03/05 10:18:35;;;;;;;0.90;0.90;;;;;;;0.76;51.92;99102.34;4858058;29;20149;-88
2022/03/05 10:21:06;;;;;;;0.88;0.88;;;;;;;0.90;51.45;99098.91;4848036;29;20056;-87
2022/03/05 10:23:36;;;;;;;0.80;0.80;;;;;;;0.60;52.02;99104.13;4880670;29;20126;-86
2022/03/05 10:26:08;;;;;;;0.80;0.80;;;;;;;0.54;52.41;99106.69;4852708;29;20084;-83
2022/03/05 10:28:38;;;;;;;0.63;0.63;;;;;;;0.59;52.66;99104.31;4873984;29;20510;-86
2022/03/05 10:31:08;;;;;;;0.77;0.77;;;;;;;0.45;52.36;99113.84;4881322;29;20079;-85
2022/03/05 10:33:47;;;;;;;0.75;0.75;;;;;;;0.10;53.03;99115.22;4881927;29;20052;-85
2022/03/05 10:36:22;;;;;;;0.80;0.80;;;;;;;-0.03;53.55;99111.31;4882780;29;20139;-85
2022/03/05 10:38:58;;;;;;;0.68;0.68;;;;;;;0.12;53.52;99103.44;4881818;29;20088;-86
2022/03/05 10:41:37;;;;;;;0.65;0.65;;;;;;;0.12;52.62;99111.41;4882190;29;20625;-85
2022/03/05 10:44:06;;;;;;;0.88;0.88;;;;;;;0.16;53.29;99111.91;4882513;29;20066;-86
2022/03/05 10:46:44;;;;;;;0.80;0.80;;;;;;;0.51;52.78;99113.16;4882459;29;20057;-85
2022/03/05 10:49:31;;;;;;;0.68;0.68;;;;;;;0.72;52.03;99115.16;4878428;29;20619;-85
2022/03/05 10:51:58;;;;;;;0.95;0.95;;;;;;;0.80;51.98;99114.25;4859037;29;20057;-81
2022/03/05 10:54:29;;;;;;;0.70;0.70;;;;;;;0.44;52.80;99112.22;4874137;29;20180;-83
2022/03/05 10:57:18;;;;;;;0.70;0.70;;;;;;;0.36;53.17;99106.97;4872127;29;20053;-83
2022/03/05 10:59:53;;;;;;;0.60;0.60;;;;;;;0.13;53.07;99114.91;4873457;29;20049;-84
2022/03/05 11:02:25;;;;;;;0.70;0.70;;;;;;;0.06;53.62;99111.28;4869989;29;20110;-84
2022/03/05 11:04:56;;;;;;;0.80;0.80;;;;;;;0.28;53.30;99120.28;4875222;29;20455;-84
2022/03/05 11:07:24;;;;;;;0.77;0.77;;;;;;;0.05;53.75;99112.28;4862411;29;20053;-85
2022/03/05 11:09:53;;;;;;;0.73;0.73;;;;;;;-0.01;54.17;99105.84;4876528;29;20439;-84
2022/03/05 11:12:21;;;;;;;0.70;0.70;;;;;;;-0.22;54.70;99119.72;4874723;29;20473;-85
2022/03/05 11:14:51;;;;;;;0.50;0.50;;;;;;;-0.25;55.21;99120.88;4878645;29;20540;-86
2022/03/05 11:17:19;;;;;;;0.60;0.60;;;;;;;-0.27;55.49;99114.91;4860989;29;20059;-86
2022/03/05 11:19:48;;;;;;;0.88;0.88;;;;;;;-0.52;55.05;99119.47;4879436;29;20080;-84
2022/03/05 11:22:15;;;;;;;0.70;0.70;;;;;;;-0.50;55.38;99114.03;4877288;29;20409;-82
2022/03/05 11:24:44;;;;;;;0.70;0.70;;;;;;;-0.41;55.28;99126.22;4872341;29;20067;-85
2022/03/05 11:27:15;;;;;;;0.70;0.70;;;;;;;-0.56;55.68;99107.56;4863732;29;20493;-86
2022/03/05 11:30:10;;;;;;;0.60;0.60;;;;;;;-0.18;55.50;99131.63;4854411;29;20060;-85
2022/03/05 11:32:38;;;;;;;0.82;0.82;;;;;;;0.17;54.98;99121.50;4865388;29;20532;-85
2022/03/05 11:35:22;;;;;;;0.80;0.80;;;;;;;0.09;54.14;99118.91;4873823;29;20056;-85
2022/03/05 11:37:51;;;;;;;0.80;0.80;;;;;;;-0.38;55.17;99127.72;4868666;29;20053;-85
2022/03/05 11:40:34;;;;;;;0.90;0.90;;;;;;;-0.47;56.05;99132.22;4859323;29;20102;-85
2022/03/05 11:43:21;;;;;;;0.90;0.90;;;;;;;-0.52;56.22;99130.09;4876911;29;20057;-86
2022/03/05 11:45:57;;;;;;;0.50;0.50;;;;;;;-0.50;55.90;99133.41;4875890;29;20147;-86
2022/03/05 11:48:36;;;;;;;0.70;0.70;;;;;;;-0.80;56.12;99132.31;4871137;29;20068;-83
2022/03/05 11:51:10;;;;;;;0.70;0.70;;;;;;;-0.74;56.68;99138.75;4875964;29;20076;-82
2022/03/05 11:53:38;;;;;;;0.60;0.60;;;;;;;-0.77;56.66;99139.09;4873916;29;20067;-83